Time;durP1;ratioP1;P1;durP2;ratioP2;P2;SDS_P1;SDS_P2;PMS_P1;PMS_P2;Temp;Humidity;BMP_temperature;BMP_pressure;BME280_temperature;BME280_humidity;BME280_pressure;Samples;Min_cycle;Max_cycle;Signal;HPM_P1;HPM_P2
2021/09/08 00:01:23;;;;;;;17.00;8.35;;;;;;;6.98;86.43;100522.38;1677506;83;20974;-75
2021/09/08 00:03:56;;;;;;;15.32;7.72;;;;;;;6.93;86.67;100515.81;1668655;84;20950;-74
2021/09/08 00:06:27;;;;;;;18.85;8.83;;;;;;;6.92;86.96;100519.66;1694412;83;20991;-74
2021/09/08 00:08:54;;;;;;;18.00;8.55;;;;;;;6.89;86.91;100516.09;1708290;83;20891;-75
2021/09/08 00:11:26;;;;;;;14.80;7.90;;;;;;;6.86;86.90;100515.81;1689755;83;21458;-76
2021/09/08 00:13:57;;;;;;;18.20;8.00;;;;;;;6.83;87.20;100513.61;1693830;84;20916;-76
2021/09/08 00:16:29;;;;;;;18.75;8.85;;;;;;;6.82;87.32;100517.44;1693815;83;20952;-76
2021/09/08 00:19:03;;;;;;;17.32;8.33;;;;;;;6.79;87.36;100517.97;1664099;84;20905;-74
2021/09/08 00:21:32;;;;;;;16.45;8.55;;;;;;;6.77;87.62;100520.14;1704674;83;20944;-74
2021/09/08 00:24:00;;;;;;;21.37;8.18;;;;;;;6.74;87.67;100516.03;1690596;83;21506;-74
2021/09/08 00:26:30;;;;;;;16.27;7.72;;;;;;;6.73;87.74;100520.39;1702478;83;20989;-72
2021/09/08 00:29:00;;;;;;;15.60;7.58;;;;;;;6.72;88.06;100522.30;1703809;83;21538;-72
2021/09/08 00:31:30;;;;;;;17.00;8.20;;;;;;;6.71;88.07;100522.57;1709920;83;20856;-73
2021/09/08 00:34:02;;;;;;;20.88;8.70;;;;;;;6.72;88.20;100528.30;1664719;83;21605;-73
2021/09/08 00:36:37;;;;;;;18.77;8.88;;;;;;;6.70;88.33;100529.11;1658679;85;20951;-75
2021/09/08 00:39:12;;;;;;;14.40;7.67;;;;;;;6.70;88.55;100525.84;1608975;86;21019;-76
2021/09/08 00:41:42;;;;;;;;;;;;;;;6.70;88.89;100525.84;1637654;87;21165;-75
2021/09/08 00:44:15;;;;;;;20.17;8.60;;;;;;;6.71;88.78;100532.13;1603683;88;20132;-73
2021/09/08 00:46:46;;;;;;;14.23;8.58;;;;;;;6.70;88.97;100527.75;1605583;88;20999;-78
2021/09/08 00:49:19;;;;;;;21.82;8.85;;;;;;;6.76;89.15;100526.69;1660023;84;21044;-77
2021/09/08 00:51:54;;;;;;;26.07;9.48;;;;;;;6.82;89.03;100529.72;1669624;84;21075;-77
2021/09/08 00:54:27;;;;;;;18.73;8.35;;;;;;;6.88;88.85;100529.47;1663663;84;22008;-74
2021/09/08 00:57:00;;;;;;;19.87;8.60;;;;;;;6.95;88.67;100531.38;1641917;85;21024;-76
2021/09/08 00:59:32;;;;;;;18.17;8.35;;;;;;;7.01;88.67;100526.75;1662658;85;21507;-74
2021/09/08 01:02:06;;;;;;;18.32;8.83;;;;;;;7.07;88.78;100536.60;1666426;85;20989;-73
2021/09/08 01:04:39;;;;;;;18.37;8.98;;;;;;;7.10;88.82;100531.15;1674709;84;21017;-74
2021/09/08 01:07:12;;;;;;;17.70;8.60;;;;;;;7.14;88.86;100528.16;1662784;85;20928;-75
2021/09/08 01:09:48;;;;;;;22.87;9.58;;;;;;;7.19;88.92;100527.63;1648843;85;21081;-74
2021/09/08 01:12:15;;;;;;;21.07;9.40;;;;;;;7.26;88.56;100525.45;1650368;85;20992;-76
2021/09/08 01:14:50;;;;;;;24.45;9.83;;;;;;;7.38;88.10;100520.30;1662612;84;20906;-75
2021/09/08 01:17:20;;;;;;;21.48;9.03;;;;;;;7.45;87.57;100524.41;1657720;85;20991;-74
2021/09/08 01:19:52;;;;;;;20.40;8.53;;;;;;;7.59;86.43;100521.93;1660811;84;21267;-76
2021/09/08 01:22:30;;;;;;;20.60;8.90;;;;;;;7.69;86.24;100519.20;1658673;84;21099;-75
2021/09/08 01:25:01;;;;;;;19.62;9.23;;;;;;;7.75;85.75;100520.84;1626876;87;21054;-76
2021/09/08 01:27:34;;;;;;;22.02;9.80;;;;;;;7.79;85.13;100516.47;1610929;88;20986;-74
2021/09/08 01:30:03;;;;;;;25.35;9.18;;;;;;;7.84;83.91;100512.92;1609685;87;21097;-74
2021/09/08 01:32:36;;;;;;;24.87;10.88;;;;;;;7.92;82.77;100518.66;1607273;88;21978;-73
2021/09/08 01:35:10;;;;;;;22.93;10.32;;;;;;;8.04;81.70;100516.19;1623437;87;20937;-74
2021/09/08 01:37:43;;;;;;;26.37;9.60;;;;;;;8.12;81.49;100515.05;1624749;86;21100;-74
2021/09/08 01:40:14;;;;;;;21.60;9.95;;;;;;;8.20;80.84;100515.05;1586827;88;21034;-74
2021/09/08 01:42:47;;;;;;;22.60;9.70;;;;;;;8.25;80.23;100509.56;1605785;88;21458;-73
2021/09/08 01:45:15;;;;;;;22.10;9.87;;;;;;;8.29;79.86;100506.55;1598110;88;21171;-75
2021/09/08 01:47:54;;;;;;;20.97;10.32;;;;;;;8.31;79.68;100500.80;1650608;84;20944;-75
2021/09/08 01:50:25;;;;;;;17.67;8.60;;;;;;;8.32;79.44;100505.99;1669911;83;21384;-76
2021/09/08 01:52:52;;;;;;;23.87;9.18;;;;;;;8.29;80.06;100501.08;1677623;84;20959;-73
2021/09/08 01:55:20;;;;;;;19.65;10.00;;;;;;;8.23;80.34;100504.38;1695271;83;20951;-77
2021/09/08 01:57:51;;;;;;;18.57;9.20;;;;;;;8.22;80.00;100503.28;1696887;84;21177;-75
2021/09/08 02:00:19;;;;;;;17.80;8.78;;;;;;;8.18;80.78;100503.56;1682218;83;20940;-76
2021/09/08 02:02:48;;;;;;;19.27;9.43;;;;;;;8.09;80.80;100506.58;1697749;84;20987;-77
2021/09/08 02:05:19;;;;;;;17.27;9.00;;;;;;;8.02;80.31;100500.61;1661740;84;21616;-76
2021/09/08 02:07:54;;;;;;;17.35;8.45;;;;;;;8.03;80.48;100502.25;1695085;84;21533;-77
2021/09/08 02:10:28;;;;;;;15.60;8.38;;;;;;;8.02;80.86;100500.61;1679029;84;20966;-78
2021/09/08 02:12:58;;;;;;;19.20;8.05;;;;;;;7.95;80.72;100498.97;1679861;85;21068;-77
2021/09/08 02:15:29;;;;;;;16.62;7.87;;;;;;;7.93;79.91;100499.80;1665459;84;20972;-77
2021/09/08 02:17:57;;;;;;;25.82;8.90;;;;;;;7.93;79.39;100491.59;1591645;88;21046;-77
2021/09/08 02:20:30;;;;;;;19.35;8.98;;;;;;;7.95;79.42;100493.50;1612526;87;21178;-74
2021/09/08 02:22:59;;;;;;;20.65;8.05;;;;;;;7.93;78.99;100491.59;1612040;87;21088;-72
2021/09/08 02:25:28;;;;;;;19.07;8.10;;;;;;;7.93;78.53;100488.86;1601260;88;21014;-72
2021/09/08 02:27:57;;;;;;;18.48;8.15;;;;;;;7.92;79.08;100487.22;1612911;88;21031;-74
2021/09/08 02:30:26;;;;;;;18.37;8.10;;;;;;;7.87;79.20;100498.16;1665928;85;20920;-74
2021/09/08 02:32:57;;;;;;;14.55;7.53;;;;;;;7.83;79.23;100490.78;1680903;84;20987;-74
2021/09/08 02:35:27;;;;;;;15.55;6.80;;;;;;;7.77;79.64;100496.80;1685847;84;21077;-74
2021/09/08 02:37:57;;;;;;;16.45;7.35;;;;;;;7.72;79.91;100494.06;1673806;84;21494;-74
2021/09/08 02:40:25;;;;;;;17.52;7.08;;;;;;;7.67;79.46;100488.59;1671964;84;21631;-74
2021/09/08 02:42:54;;;;;;;15.38;7.28;;;;;;;7.67;79.08;100495.97;1653820;85;21435;-74
2021/09/08 02:45:24;;;;;;;15.05;7.60;;;;;;;7.66;79.03;100491.05;1658474;86;20884;-73
2021/09/08 02:47:53;;;;;;;16.97;7.75;;;;;;;7.63;79.27;100493.78;1651369;85;21798;-74
2021/09/08 02:50:20;;;;;;;14.28;7.95;;;;;;;7.56;79.53;100495.15;1656191;85;20972;-74
2021/09/08 02:52:52;;;;;;;16.40;7.67;;;;;;;7.45;79.98;100500.36;1652749;85;20959;-73
2021/09/08 02:55:22;;;;;;;15.45;7.60;;;;;;;7.30;80.63;100501.16;1676322;84;20880;-73
2021/09/08 02:57:50;;;;;;;15.03;7.17;;;;;;;7.14;80.97;100496.75;1658668;84;21030;-73
2021/09/08 03:00:19;;;;;;;16.00;7.45;;;;;;;7.06;81.42;100501.37;1683311;84;21136;-73
2021/09/08 03:02:53;;;;;;;17.50;7.78;;;;;;;7.00;81.79;100496.99;1662262;84;20986;-73
2021/09/08 03:05:21;;;;;;;14.25;7.05;;;;;;;6.93;82.22;100493.97;1650107;84;21159;-75
2021/09/08 03:07:55;;;;;;;17.02;7.70;;;;;;;6.90;82.29;100496.45;1628733;86;21023;-73
2021/09/08 03:10:27;;;;;;;13.98;6.83;;;;;;;6.89;82.28;100497.53;1633503;86;21426;-74
2021/09/08 03:13:00;;;;;;;20.10;7.90;;;;;;;6.92;82.32;100491.54;1610794;88;22191;-74
2021/09/08 03:15:31;;;;;;;17.12;7.20;;;;;;;6.95;82.24;100500.52;1628685;86;21003;-73
2021/09/08 03:18:02;;;;;;;19.05;8.25;;;;;;;6.93;82.30;100490.45;1626170;86;21099;-75
2021/09/08 03:20:37;;;;;;;20.27;7.10;;;;;;;6.91;82.15;100493.45;1649008;85;21472;-76
2021/09/08 03:23:13;;;;;;;;;;;;;;;6.97;82.06;100498.34;1679958;84;20902;-75
2021/09/08 03:25:42;;;;;;;16.07;7.97;;;;;;;7.02;81.87;100492.91;1653147;86;21188;-75
2021/09/08 03:28:12;;;;;;;20.17;7.15;;;;;;;7.05;81.55;100497.00;1671229;84;20917;-74
2021/09/08 03:30:40;;;;;;;15.08;8.00;;;;;;;7.06;81.57;100495.38;1661495;85;20919;-71
2021/09/08 03:33:15;;;;;;;18.48;7.83;;;;;;;7.06;81.40;100494.55;1639268;85;20993;-74
2021/09/08 03:35:44;;;;;;;16.62;7.55;;;;;;;7.05;81.44;100498.37;1665543;85;20944;-74
2021/09/08 03:38:19;;;;;;;17.25;7.55;;;;;;;7.01;81.63;100498.63;1650003;85;21155;-77
2021/09/08 03:40:45;;;;;;;12.85;6.78;;;;;;;6.96;81.62;100502.98;1672498;85;20928;-74
2021/09/08 03:43:22;;;;;;;20.17;7.35;;;;;;;6.97;81.46;100499.72;1678044;85;20904;-74
2021/09/08 03:45:55;;;;;;;22.67;8.35;;;;;;;6.99;81.38;100500.27;1653398;86;20917;-74
2021/09/08 03:48:25;;;;;;;17.67;7.70;;;;;;;7.01;81.39;100504.09;1642803;85;20995;-72
2021/09/08 03:50:53;;;;;;;16.17;7.70;;;;;;;7.03;81.68;100500.00;1659341;85;21243;-74
2021/09/08 03:53:27;;;;;;;19.17;8.05;;;;;;;7.03;81.88;100501.37;1654799;85;21051;-75
2021/09/08 03:56:00;;;;;;;18.32;8.00;;;;;;;7.05;81.12;100497.00;1664007;84;21592;-78
2021/09/08 03:58:31;;;;;;;22.00;8.18;;;;;;;7.14;80.83;100501.67;1682287;84;21042;-75
2021/09/08 04:00:57;;;;;;;18.17;8.08;;;;;;;7.25;80.41;100502.52;1671101;85;20988;-75
2021/09/08 04:03:29;;;;;;;23.95;8.33;;;;;;;7.35;80.11;100507.17;1686038;84;21515;-74
2021/09/08 04:05:56;;;;;;;22.85;9.53;;;;;;;7.41;79.82;100502.00;1677613;84;20952;-75
2021/09/08 04:08:26;;;;;;;27.07;10.72;;;;;;;7.44;79.57;100499.54;1686612;84;20876;-74
2021/09/08 04:10:57;;;;;;;26.40;10.48;;;;;;;7.50;79.47;100507.20;1674408;85;20880;-76
2021/09/08 04:13:28;;;;;;;31.02;9.93;;;;;;;7.53;79.56;100501.98;1681659;84;20908;-73
2021/09/08 04:16:01;;;;;;;;;;;;;;;7.59;79.30;100502.80;1679371;85;21507;-73
2021/09/08 04:18:35;;;;;;;22.05;8.90;;;;;;;7.63;79.44;100508.81;1645789;86;20102;-74
2021/09/08 04:21:07;;;;;;;22.60;9.40;;;;;;;7.69;79.44;100510.19;1623951;86;20869;-74
2021/09/08 04:23:34;;;;;;;25.90;9.65;;;;;;;7.74;79.21;100508.27;1627496;88;21030;-73
2021/09/08 04:26:07;;;;;;;30.45;10.30;;;;;;;7.83;78.87;100508.55;1620378;88;20944;-73
2021/09/08 04:28:38;;;;;;;20.80;9.18;;;;;;;7.91;78.68;100510.19;1665551;85;21790;-73
2021/09/08 04:31:12;;;;;;;22.52;9.53;;;;;;;8.02;78.55;100508.27;1682232;84;20903;-72
2021/09/08 04:33:45;;;;;;;24.63;9.48;;;;;;;8.10;78.10;100504.94;1649956;86;20943;-73
2021/09/08 04:36:20;;;;;;;23.95;9.35;;;;;;;8.20;78.09;100505.47;1649961;84;20999;-74
2021/09/08 04:38:59;;;;;;;15.98;7.70;;;;;;;8.29;77.98;100503.27;1674536;84;21007;-74
2021/09/08 04:41:28;;;;;;;24.12;9.73;;;;;;;8.41;76.63;100506.28;1631566;86;23414;-73
2021/09/08 04:43:55;;;;;;;20.77;9.53;;;;;;;8.52;76.38;100503.78;1606061;88;20926;-74
2021/09/08 04:46:24;;;;;;;23.12;9.33;;;;;;;8.64;76.08;100505.66;1635397;86;20995;-78
2021/09/08 04:48:59;;;;;;;21.15;9.63;;;;;;;8.75;75.75;100500.38;1637825;85;20925;-69
2021/09/08 04:51:30;;;;;;;20.55;10.70;;;;;;;8.88;75.61;100503.88;1651272;86;20976;-71
2021/09/08 04:53:59;;;;;;;23.40;9.30;;;;;;;9.04;75.42;100509.29;1658291;86;21077;-68
2021/09/08 04:56:36;;;;;;;20.62;8.85;;;;;;;9.17;74.96;100510.04;1631749;86;21530;-69
2021/09/08 04:59:06;;;;;;;18.73;8.68;;;;;;;9.26;74.13;100512.42;1656459;86;20955;-68
2021/09/08 05:01:36;;;;;;;16.30;7.00;;;;;;;9.36;73.37;100510.17;1651895;86;20923;-69
2021/09/08 05:04:06;;;;;;;18.85;7.30;;;;;;;9.43;72.75;100503.81;1652926;86;21019;-70
2021/09/08 05:06:39;;;;;;;19.17;7.83;;;;;;;9.47;72.87;100507.63;1667678;84;21240;-74
2021/09/08 05:09:09;;;;;;;16.45;6.60;;;;;;;9.53;72.31;100503.20;1659557;85;21019;-73
2021/09/08 05:11:42;;;;;;;22.52;6.80;;;;;;;9.59;71.26;100502.05;1666571;85;21031;-74
2021/09/08 05:14:13;;;;;;;22.32;8.93;;;;;;;9.69;71.13;100501.70;1669821;84;21030;-76
2021/09/08 05:16:44;;;;;;;16.12;7.50;;;;;;;9.79;71.36;100506.56;1648279;83;20968;-74
2021/09/08 05:19:18;;;;;;;12.95;5.87;;;;;;;9.86;70.36;100502.08;1678906;83;21202;-75
2021/09/08 05:21:53;;;;;;;15.58;7.08;;;;;;;10.00;70.22;100496.20;1645161;85;21498;-68
2021/09/08 05:24:21;;;;;;;16.48;6.65;;;;;;;10.16;70.67;100493.58;1682180;84;20968;-71
2021/09/08 05:26:52;;;;;;;15.32;7.75;;;;;;;10.32;70.03;100491.52;1675180;84;20962;-70
2021/09/08 05:29:20;;;;;;;12.65;5.95;;;;;;;10.49;70.14;100490.48;1653229;85;21049;-73
2021/09/08 05:31:51;;;;;;;14.43;6.30;;;;;;;10.66;69.17;100489.19;1650907;85;21676;-69
2021/09/08 05:34:24;;;;;;;13.75;5.22;;;;;;;10.81;69.78;100487.08;1668230;84;20955;-69
2021/09/08 05:36:58;;;;;;;14.55;6.40;;;;;;;11.01;69.42;100483.77;1622056;85;20967;-70
2021/09/08 05:39:27;;;;;;;11.43;5.45;;;;;;;11.18;69.07;100486.27;1642554;85;21538;-72
2021/09/08 05:42:09;;;;;;;17.60;5.87;;;;;;;11.29;68.54;100484.19;1588995;89;20937;-72
2021/09/08 05:44:37;;;;;;;14.20;5.28;;;;;;;11.37;68.79;100490.39;1662660;85;21172;-69
2021/09/08 05:47:05;;;;;;;10.58;5.03;;;;;;;11.46;69.10;100487.23;1656124;85;20909;-69
2021/09/08 05:49:38;;;;;;;13.45;5.37;;;;;;;11.58;69.24;100490.31;1663975;85;21470;-71
2021/09/08 05:52:05;;;;;;;12.68;5.58;;;;;;;11.72;68.61;100482.67;1657894;84;20937;-68
2021/09/08 05:54:37;;;;;;;10.82;6.58;;;;;;;11.86;68.51;100483.00;1675470;85;21436;-69
2021/09/08 05:57:09;;;;;;;15.70;8.03;;;;;;;12.08;69.22;100480.16;1677683;85;21056;-73
2021/09/08 05:59:42;;;;;;;16.23;5.62;;;;;;;12.34;68.48;100482.66;1660528;85;21008;-70
2021/09/08 06:02:15;;;;;;;14.63;5.92;;;;;;;12.61;67.67;100476.35;1677379;85;21001;-71
2021/09/08 06:04:46;;;;;;;21.35;6.33;;;;;;;12.84;67.83;100469.77;1673521;85;21531;-69
2021/09/08 06:07:17;;;;;;;12.35;5.00;;;;;;;13.07;67.12;100476.17;1650479;85;20940;-68
2021/09/08 06:09:52;;;;;;;16.25;4.75;;;;;;;13.30;65.48;100476.22;1654376;85;21970;-71
2021/09/08 06:12:18;;;;;;;11.28;5.40;;;;;;;13.44;64.49;100471.47;1690307;83;20920;-67
2021/09/08 06:14:51;;;;;;;8.23;3.80;;;;;;;13.55;64.03;100474.23;1683895;83;20948;-74
2021/09/08 06:17:23;;;;;;;8.30;4.53;;;;;;;13.64;63.02;100470.98;1686894;84;21105;-67
2021/09/08 06:19:52;;;;;;;7.97;3.70;;;;;;;13.75;63.23;100472.36;1673950;84;20975;-67
2021/09/08 06:22:23;;;;;;;12.03;3.95;;;;;;;13.89;61.48;100473.64;1664531;83;21092;-67
2021/09/08 06:24:57;;;;;;;12.15;4.42;;;;;;;13.98;60.78;100477.84;1673418;84;20943;-68
2021/09/08 06:27:32;;;;;;;10.68;3.58;;;;;;;14.08;61.63;100470.67;1663038;85;20955;-68
2021/09/08 06:30:05;;;;;;;13.93;4.10;;;;;;;14.20;60.74;100468.14;1667566;85;20953;-77
2021/09/08 06:32:33;;;;;;;13.48;3.83;;;;;;;14.32;61.19;100471.13;1665989;85;20900;-66
2021/09/08 06:35:04;;;;;;;9.43;3.47;;;;;;;14.44;59.46;100471.34;1670423;83;21166;-67
2021/09/08 06:37:35;;;;;;;11.88;4.10;;;;;;;14.53;59.03;100465.84;1671313;85;20869;-67
2021/09/08 06:40:10;;;;;;;14.00;3.90;;;;;;;14.60;60.60;100464.00;1668101;84;21097;-67
2021/09/08 06:42:40;;;;;;;8.63;3.80;;;;;;;14.71;59.57;100459.24;1667284;85;21036;-67
2021/09/08 06:45:12;;;;;;;14.87;4.60;;;;;;;14.84;58.80;100457.48;1654835;85;21083;-67
2021/09/08 06:47:44;;;;;;;11.10;3.90;;;;;;;14.95;59.08;100458.81;1659639;84;21106;-67
2021/09/08 06:50:20;;;;;;;12.13;3.85;;;;;;;15.05;57.51;100457.66;1650616;85;21040;-68
2021/09/08 06:52:41;;;;;;;11.40;3.58;;;;;;;15.12;58.66;100461.57;1666023;84;21030;-67
2021/09/08 06:55:11;;;;;;;9.35;3.92;;;;;;;15.24;58.21;100472.56;1659829;85;21075;-67
2021/09/08 06:57:40;;;;;;;14.43;3.70;;;;;;;15.35;57.83;100466.96;1674724;84;21050;-67
2021/09/08 07:00:11;;;;;;;;;;;;;;;15.49;58.20;100467.61;1648295;84;20951;-67
2021/09/08 07:02:39;;;;;;;10.30;3.40;;;;;;;15.64;57.47;100474.03;1666511;84;20494;-67
2021/09/08 07:05:10;;;;;;;9.40;3.62;;;;;;;15.78;57.18;100464.98;1667977;84;21503;-67
2021/09/08 07:07:42;;;;;;;;;;;;;;;15.93;56.85;100473.92;1653420;85;21027;-67
2021/09/08 07:10:11;;;;;;;29.72;4.53;;;;;;;16.07;55.71;100464.28;1650771;85;20152;-66
2021/09/08 07:12:40;;;;;;;11.10;3.80;;;;;;;16.17;55.29;100472.20;1656351;85;21158;-67
2021/09/08 07:15:10;;;;;;;23.52;4.95;;;;;;;16.27;54.00;100468.83;1658839;85;21502;-68
2021/09/08 07:17:41;;;;;;;9.90;4.15;;;;;;;16.33;53.51;100469.70;1654508;85;21074;-68
2021/09/08 07:20:12;;;;;;;9.70;3.80;;;;;;;16.41;54.49;100466.09;1649623;86;21499;-66
2021/09/08 07:22:52;;;;;;;18.40;4.45;;;;;;;16.53;53.49;100460.41;1653870;86;21024;-67
2021/09/08 07:25:13;;;;;;;10.82;3.20;;;;;;;16.71;53.97;100460.60;1650504;85;21483;-66
2021/09/08 07:27:49;;;;;;;;;;;;;;;17.09;52.61;100460.50;1649919;85;21036;-66
2021/09/08 07:30:20;;;;;;;11.78;3.65;;;;;;;17.55;50.78;100457.27;1634730;86;20140;-66
2021/09/08 07:32:51;;;;;;;7.78;4.20;;;;;;;17.93;50.45;100457.06;1657789;84;21107;-66
2021/09/08 07:35:20;;;;;;;9.65;4.08;;;;;;;18.27;49.55;100458.65;1691208;84;21090;-67
2021/09/08 07:37:54;;;;;;;9.35;3.52;;;;;;;18.54;48.89;100462.70;1688625;84;20979;-67
2021/09/08 07:40:25;;;;;;;10.88;3.50;;;;;;;18.82;47.23;100459.49;1681169;84;21538;-68
2021/09/08 07:42:55;;;;;;;21.77;7.00;;;;;;;19.07;47.92;100461.05;1672331;84;20939;-68
2021/09/08 07:45:26;;;;;;;12.68;6.00;;;;;;;19.44;46.86;100456.21;1645854;84;21063;-67
2021/09/08 07:47:52;;;;;;;8.75;4.47;;;;;;;19.75;47.25;100456.91;1669864;84;21122;-71
2021/09/08 07:50:28;;;;;;;12.30;5.53;;;;;;;20.07;45.03;100458.38;1654094;85;26776;-66
2021/09/08 07:52:54;;;;;;;11.03;4.30;;;;;;;20.27;44.82;100457.29;1682847;84;20963;-66
2021/09/08 07:55:30;;;;;;;11.78;4.47;;;;;;;20.50;44.99;100458.09;1688076;84;21736;-66
2021/09/08 07:57:56;;;;;;;24.15;4.53;;;;;;;20.78;44.79;100462.17;1695664;84;21061;-66
2021/09/08 08:00:28;;;;;;;9.03;4.25;;;;;;;20.94;43.56;100455.36;1673841;85;21582;-66
2021/09/08 08:02:58;;;;;;;8.03;4.37;;;;;;;21.02;43.33;100454.35;1687026;84;21161;-67
2021/09/08 08:05:34;;;;;;;9.78;4.05;;;;;;;21.15;42.97;100454.23;1673997;84;20963;-67
2021/09/08 08:08:05;;;;;;;6.15;3.30;;;;;;;21.25;42.31;100452.30;1668933;85;21086;-66
2021/09/08 08:10:33;;;;;;;9.63;3.62;;;;;;;21.31;42.10;100450.25;1676408;84;20922;-70
2021/09/08 08:13:09;;;;;;;13.48;4.22;;;;;;;21.37;42.59;100443.16;1660618;84;21411;-70
2021/09/08 08:15:39;;;;;;;7.20;3.85;;;;;;;21.55;43.14;100452.51;1666671;84;22116;-68
2021/09/08 08:18:11;;;;;;;9.28;4.22;;;;;;;21.73;41.67;100448.09;1680447;84;21619;-68
2021/09/08 08:20:38;;;;;;;6.80;3.62;;;;;;;21.77;40.94;100443.97;1668235;85;21043;-68
2021/09/08 08:23:07;;;;;;;8.58;4.33;;;;;;;21.79;41.30;100443.02;1655803;85;21613;-69
2021/09/08 08:25:38;;;;;;;10.50;3.90;;;;;;;21.89;41.14;100444.62;1667096;84;21519;-67
2021/09/08 08:28:07;;;;;;;21.50;4.20;;;;;;;22.05;40.85;100445.33;1647218;86;20928;-66
2021/09/08 08:30:39;;;;;;;18.82;4.10;;;;;;;22.25;40.46;100441.08;1656172;84;21020;-69
2021/09/08 08:33:09;;;;;;;12.13;3.42;;;;;;;22.44;39.90;100439.62;1657018;84;21637;-68
2021/09/08 08:35:43;;;;;;;7.40;3.75;;;;;;;22.51;39.26;100436.94;1687307;84;20955;-69
2021/09/08 08:38:15;;;;;;;13.10;3.70;;;;;;;22.61;40.31;100436.28;1666967;85;20923;-68
2021/09/08 08:40:44;;;;;;;14.87;3.97;;;;;;;22.83;39.35;100429.65;1669879;84;21232;-68
2021/09/08 08:43:15;;;;;;;5.25;2.90;;;;;;;22.94;38.61;100439.82;1673715;84;21699;-70
2021/09/08 08:45:51;;;;;;;;;;;;;;;23.03;38.26;100438.15;1680324;84;20955;-69
2021/09/08 08:48:18;;;;;;;11.57;3.52;;;;;;;23.19;38.93;100428.14;1675283;84;20203;-72
2021/09/08 08:50:51;;;;;;;6.72;3.42;;;;;;;23.30;37.80;100426.28;1675903;85;21100;-71
2021/09/08 08:53:21;;;;;;;;;;;;;;;23.25;37.42;100436.42;1681937;84;21156;-71
2021/09/08 08:55:52;;;;;;;10.55;3.30;;;;;;;23.20;37.75;100433.36;1674950;85;20131;-72
2021/09/08 08:58:26;;;;;;;7.45;3.52;;;;;;;23.30;38.33;100427.69;1692412;83;20919;-70
2021/09/08 09:01:20;;;;;;;8.45;3.15;;;;;;;23.49;37.41;100423.93;1680057;84;21115;-69
2021/09/08 09:04:08;;;;;;;3.62;2.58;;;;;;;23.58;37.84;100411.27;1667253;85;21589;-72
2021/09/08 09:06:41;;;;;;;12.58;3.30;;;;;;;23.82;37.38;100404.89;1686059;83;21843;-70
2021/09/08 09:09:15;;;;;;;9.83;3.37;;;;;;;23.96;36.27;100412.86;1665015;84;21006;-72
2021/09/08 09:11:48;;;;;;;13.45;3.60;;;;;;;23.97;35.67;100417.27;1673915;84;21003;-69
2021/09/08 09:14:18;;;;;;;12.90;4.92;;;;;;;23.98;36.00;100421.69;1643896;85;21618;-70
2021/09/08 09:16:51;;;;;;;16.02;4.58;;;;;;;24.01;35.58;100420.11;1663895;84;21012;-67
2021/09/08 09:19:22;;;;;;;7.42;3.00;;;;;;;23.96;35.47;100424.08;1647551;85;21032;-67
2021/09/08 09:21:56;;;;;;;10.40;3.33;;;;;;;23.99;36.36;100412.68;1684629;83;20906;-67
2021/09/08 09:24:31;;;;;;;12.47;4.10;;;;;;;24.16;37.20;100405.63;1665190;85;20995;-68
2021/09/08 09:27:03;;;;;;;11.88;4.22;;;;;;;24.39;36.36;100408.24;1659930;84;21092;-74
2021/09/08 09:29:29;;;;;;;8.43;3.15;;;;;;;24.57;35.12;100402.98;1680917;84;20965;-69
2021/09/08 09:32:01;;;;;;;15.78;3.42;;;;;;;24.63;35.03;100404.83;1666506;85;21657;-73
2021/09/08 09:34:36;;;;;;;;;;;;;;;24.59;34.64;100404.00;1689754;84;21129;-77
2021/09/08 09:37:03;;;;;;;5.10;2.70;;;;;;;24.63;34.82;100402.83;1671218;84;26568;-75
2021/09/08 09:39:39;;;;;;;8.05;3.80;;;;;;;24.63;34.85;100395.81;1615676;86;21107;-79
2021/09/08 09:42:11;;;;;;;6.08;3.05;;;;;;;24.71;35.34;100402.87;1663511;85;21503;-78
2021/09/08 09:44:44;;;;;;;9.10;3.20;;;;;;;24.88;34.96;100404.38;1673015;85;21127;-78
2021/09/08 09:47:14;;;;;;;8.38;3.20;;;;;;;24.94;33.66;100398.59;1656542;85;21053;-73
2021/09/08 09:49:43;;;;;;;9.33;3.52;;;;;;;24.92;32.99;100392.56;1668666;84;20972;-73
2021/09/08 09:52:11;;;;;;;11.68;4.08;;;;;;;24.78;33.85;100399.52;1679662;84;21000;-70
2021/09/08 09:54:43;;;;;;;6.67;3.20;;;;;;;24.61;34.18;100393.98;1702409;84;21534;-71
2021/09/08 09:57:16;;;;;;;7.15;3.62;;;;;;;24.47;33.92;100391.08;1670611;84;21126;-71
2021/09/08 09:59:45;;;;;;;8.65;3.25;;;;;;;24.41;34.33;100386.21;1670365;84;21093;-71
2021/09/08 10:02:14;;;;;;;13.28;4.08;;;;;;;24.39;33.58;100390.00;1687017;84;21010;-72
2021/09/08 10:04:44;;;;;;;4.50;3.05;;;;;;;24.42;35.00;100390.03;1683536;84;21007;-72
2021/09/08 10:07:17;;;;;;;10.53;3.47;;;;;;;24.52;34.47;100387.10;1671989;84;20916;-72
2021/09/08 10:09:47;;;;;;;;;;;;;;;24.67;35.06;100382.60;1673490;84;22304;-71
2021/09/08 10:12:17;;;;;;;21.00;3.77;;;;;;;24.96;34.80;100381.38;1631499;87;20140;-73
2021/09/08 10:14:50;;;;;;;8.10;3.83;;;;;;;25.23;35.05;100377.10;1677627;84;21054;-72
2021/09/08 10:17:22;;;;;;;14.33;3.12;;;;;;;25.45;33.21;100379.97;1667906;84;21057;-72
2021/09/08 10:20:06;;;;;;;12.30;3.65;;;;;;;25.45;33.42;100376.56;1659897;85;21018;-72
2021/09/08 10:22:40;;;;;;;17.02;3.47;;;;;;;25.47;32.83;100362.91;1686139;84;21577;-69
2021/09/08 10:25:10;;;;;;;5.12;3.42;;;;;;;25.34;34.11;100370.13;1680956;84;21102;-70
2021/09/08 10:27:44;;;;;;;8.70;3.27;;;;;;;25.41;33.90;100372.16;1683440;84;20975;-69
2021/09/08 10:30:15;;;;;;;7.37;3.67;;;;;;;25.55;33.07;100374.38;1682497;84;20956;-69
2021/09/08 10:32:45;;;;;;;7.22;3.80;;;;;;;25.65;33.25;100368.02;1674256;84;20963;-69
2021/09/08 10:35:19;;;;;;;9.63;4.08;;;;;;;25.64;32.18;100379.66;1672697;85;21130;-72
2021/09/08 10:37:50;;;;;;;10.40;4.00;;;;;;;25.51;33.75;100379.78;1667865;84;20955;-69
2021/09/08 10:40:27;;;;;;;13.40;4.95;;;;;;;25.59;33.33;100375.80;1664938;84;20947;-70
2021/09/08 10:43:04;;;;;;;7.03;3.52;;;;;;;25.72;33.49;100372.85;1677282;85;21048;-69
2021/09/08 10:45:37;;;;;;;8.15;3.58;;;;;;;25.83;32.76;100366.65;1683828;85;20873;-69
2021/09/08 10:48:03;;;;;;;8.80;3.77;;;;;;;25.72;32.99;100360.80;1638980;86;22240;-69
2021/09/08 10:50:38;;;;;;;11.97;3.70;;;;;;;25.64;33.22;100358.58;1632808;87;20961;-69
2021/09/08 10:53:24;;;;;;;8.60;3.80;;;;;;;25.69;33.26;100360.19;1644234;86;21542;-70
2021/09/08 10:55:52;;;;;;;5.20;3.72;;;;;;;25.66;32.53;100354.77;1666587;84;20912;-69
2021/09/08 10:58:18;;;;;;;8.20;3.83;;;;;;;25.33;32.60;100353.05;1655621;84;21585;-69
2021/09/08 11:00:48;;;;;;;7.55;3.83;;;;;;;25.16;33.81;100351.78;1662522;85;21094;-71
2021/09/08 11:03:20;;;;;;;8.53;4.00;;;;;;;24.95;34.20;100344.63;1669001;84;20908;-70
2021/09/08 11:05:58;;;;;;;23.38;5.12;;;;;;;24.64;34.06;100344.68;1653016;84;21007;-70
2021/09/08 11:08:30;;;;;;;11.15;4.35;;;;;;;24.49;35.27;100346.59;1671669;84;21548;-70
2021/09/08 11:11:17;;;;;;;10.32;3.98;;;;;;;24.66;35.03;100338.08;1645561;86;20959;-70
2021/09/08 11:13:54;;;;;;;13.93;4.60;;;;;;;24.80;34.80;100345.18;1656807;85;21475;-70
2021/09/08 11:16:31;;;;;;;9.47;4.50;;;;;;;24.83;33.65;100340.19;1654080;85;21491;-70
2021/09/08 11:19:02;;;;;;;10.05;4.78;;;;;;;24.82;34.33;100340.58;1660565;85;21463;-70
2021/09/08 11:21:31;;;;;;;15.63;4.72;;;;;;;24.91;33.36;100319.34;1646856;86;20995;-70
2021/09/08 11:24:06;;;;;;;11.08;4.25;;;;;;;25.03;35.23;100337.08;1649392;86;20987;-71
2021/09/08 11:26:35;;;;;;;7.42;4.40;;;;;;;25.30;34.35;100334.17;1645331;86;21152;-71
2021/09/08 11:29:07;;;;;;;7.35;5.03;;;;;;;25.62;33.79;100330.02;1653152;85;21451;-71
2021/09/08 11:31:44;;;;;;;9.08;5.50;;;;;;;25.76;32.61;100321.64;1669681;83;21014;-71
2021/09/08 11:34:26;;;;;;;8.15;4.80;;;;;;;25.84;33.24;100328.08;1679201;85;21017;-70
2021/09/08 11:36:58;;;;;;;9.45;5.05;;;;;;;26.16;33.41;100322.44;1683083;84;20956;-70
2021/09/08 11:39:27;;;;;;;11.00;4.72;;;;;;;26.49;32.27;100324.05;1665999;84;21223;-72
2021/09/08 11:42:02;;;;;;;10.23;4.55;;;;;;;26.50;31.26;100323.64;1669379;84;20919;-70
2021/09/08 11:44:29;;;;;;;13.18;4.87;;;;;;;26.34;31.64;100329.50;1647404;85;20975;-70